createdAt,value
2023-08-17T00:03:13.299Z,61.53
2023-08-17T00:08:16.979Z,61.41
2023-08-17T00:13:29.350Z,61.29
2023-08-17T00:18:32.654Z,61.56
2023-08-17T00:23:36.311Z,61.62
2023-08-17T00:28:39.498Z,62.07
2023-08-17T00:33:42.900Z,62.11
2023-08-17T00:38:46.529Z,62.75
2023-08-17T00:43:49.832Z,63.19
2023-08-17T00:48:56.259Z,63.64
2023-08-17T00:54:03.265Z,64.05
2023-08-17T00:59:07.073Z,64.04
2023-08-17T01:04:10.717Z,63.78
2023-08-17T01:09:14.809Z,63.80
2023-08-17T01:14:28.848Z,63.99
2023-08-17T01:19:32.420Z,64.33
2023-08-17T01:24:35.783Z,64.95
2023-08-17T01:29:39.510Z,65.33
2023-08-17T01:35:00.927Z,65.24
2023-08-17T01:40:06.455Z,65.20
2023-08-17T01:45:10.126Z,65.45
2023-08-17T01:50:13.293Z,65.66
2023-08-17T01:55:16.507Z,65.98
2023-08-17T02:00:20.677Z,66.56
2023-08-17T02:05:23.912Z,66.77
2023-08-17T02:10:27.086Z,66.93
2023-08-17T02:15:40.744Z,67.06
2023-08-17T02:20:43.976Z,67.22
2023-08-17T02:25:48.725Z,67.18
2023-08-17T02:30:57.323Z,67.11
2023-08-17T02:36:00.751Z,67.40
2023-08-17T02:41:04.156Z,67.65
2023-08-17T02:46:08.621Z,68.16
2023-08-17T02:51:14.009Z,68.43
2023-08-17T02:56:17.134Z,68.81
2023-08-17T03:01:20.337Z,69.05
2023-08-17T03:06:26.048Z,68.90
2023-08-17T03:11:31.422Z,69.13
2023-08-17T03:16:41.324Z,69.14
2023-08-17T03:21:44.668Z,69.00
2023-08-17T03:26:48.127Z,69.44
2023-08-17T03:31:51.315Z,68.63
2023-08-17T03:36:54.436Z,68.71
2023-08-17T03:41:57.870Z,68.60
2023-08-17T03:47:01.177Z,68.45
2023-08-17T03:52:04.626Z,68.57
2023-08-17T03:57:07.945Z,68.58
2023-08-17T04:02:12.520Z,68.68
2023-08-17T04:07:22.640Z,68.39
2023-08-17T04:12:25.804Z,68.39
2023-08-17T04:17:29.240Z,68.67
2023-08-17T04:22:32.868Z,68.44
2023-08-17T04:27:36.180Z,68.41
2023-08-17T04:32:39.677Z,68.64
2023-08-17T04:37:42.908Z,68.59
2023-08-17T04:42:46.460Z,68.51
2023-08-17T04:47:50.389Z,68.78
2023-08-17T04:52:53.773Z,69.31
2023-08-17T04:57:56.984Z,69.16
2023-08-17T05:03:00.301Z,69.08
2023-08-17T05:08:08.750Z,69.29
2023-08-17T05:13:13.006Z,69.16
2023-08-17T05:18:16.663Z,69.18
2023-08-17T05:23:21.060Z,69.22
2023-08-17T05:28:24.333Z,69.20
2023-08-17T05:33:27.782Z,68.79
2023-08-17T05:38:31.614Z,68.79
2023-08-17T05:43:34.834Z,68.64
2023-08-17T05:48:37.914Z,68.31
2023-08-17T05:53:41.015Z,68.51
2023-08-17T05:58:44.528Z,68.88
2023-08-17T06:03:47.883Z,69.17
2023-08-17T06:08:51.031Z,68.71
2023-08-17T06:13:54.276Z,68.62
2023-08-17T06:18:57.426Z,68.41
2023-08-17T06:24:00.474Z,67.96
2023-08-17T06:29:04.525Z,67.59
2023-08-17T06:34:07.805Z,66.99
2023-08-17T06:39:10.911Z,66.65
2023-08-17T06:44:14.140Z,66.45
2023-08-17T06:49:17.256Z,66.03
2023-08-17T06:54:20.504Z,65.40
2023-08-17T06:59:23.914Z,64.86
2023-08-17T07:04:27.269Z,64.25
2023-08-17T07:09:44.420Z,64.24
2023-08-17T07:14:50.968Z,64.43
2023-08-17T07:20:14.852Z,63.62
2023-08-17T07:25:22.196Z,63.70
2023-08-17T07:30:25.666Z,63.29
2023-08-17T07:35:29.370Z,62.80
2023-08-17T07:40:35.773Z,62.70
2023-08-17T07:45:38.954Z,62.19
2023-08-17T07:50:42.330Z,62.28
2023-08-17T07:55:46.174Z,61.93
2023-08-17T08:00:49.562Z,61.15
2023-08-17T08:05:53.395Z,61.08
2023-08-17T08:10:56.565Z,61.27
2023-08-17T08:16:00.441Z,61.25
2023-08-17T08:26:33.036Z,61.16
2023-08-17T08:31:36.399Z,60.83
2023-08-17T08:36:39.735Z,60.63
2023-08-17T08:41:44.048Z,59.70
2023-08-17T08:46:49.655Z,59.55
2023-08-17T08:52:00.660Z,58.90
2023-08-17T08:57:07.643Z,58.48
2023-08-17T09:02:15.805Z,58.55
2023-08-17T09:07:19.566Z,58.30
2023-08-17T09:12:34.035Z,58.44
2023-08-17T09:17:44.269Z,58.32
2023-08-17T09:22:47.348Z,57.91
2023-08-17T09:27:50.501Z,57.02
2023-08-17T09:32:53.772Z,56.88
2023-08-17T10:27:15.248Z,51.40
2023-08-17T10:32:18.824Z,50.38
2023-08-17T10:37:23.317Z,49.90
2023-08-17T10:42:37.726Z,49.45
2023-08-17T10:47:40.954Z,48.79
2023-08-17T10:57:52.868Z,49.59
2023-08-17T11:03:03.024Z,49.75
2023-08-17T11:08:16.983Z,48.79
2023-08-17T11:13:24.978Z,48.57
2023-08-17T11:18:28.454Z,48.81
2023-08-17T11:23:33.212Z,48.73
2023-08-17T11:28:43.304Z,48.59
2023-08-17T11:33:48.528Z,48.90
2023-08-17T11:38:53.795Z,48.92
2023-08-17T11:43:57.131Z,49.02
2023-08-17T11:49:01.190Z,47.77
2023-08-17T11:54:06.323Z,47.17
2023-08-17T11:59:15.229Z,47.26
2023-08-17T12:04:18.368Z,47.11
2023-08-17T12:09:22.971Z,46.49
2023-08-17T12:14:28.373Z,45.02
2023-08-17T12:19:31.602Z,44.49
2023-08-17T12:24:36.580Z,44.03
2023-08-17T12:29:49.639Z,43.50
2023-08-17T12:34:52.840Z,44.10
2023-08-17T12:39:56.787Z,44.43
2023-08-17T12:45:01.021Z,44.75
2023-08-17T12:50:06.100Z,45.60
2023-08-17T12:55:09.520Z,46.82
2023-08-17T13:00:13.511Z,47.71
2023-08-17T13:05:16.766Z,48.45
2023-08-17T13:10:19.995Z,48.71
2023-08-17T13:15:23.985Z,48.68
2023-08-17T13:20:29.079Z,49.31
2023-08-17T13:25:34.405Z,49.94
2023-08-17T13:30:51.797Z,50.22
2023-08-17T13:35:56.034Z,50.32
2023-08-17T13:40:59.204Z,50.44
2023-08-17T13:46:02.943Z,50.59
2023-08-17T13:51:06.232Z,50.17
2023-08-17T13:56:09.636Z,50.13
2023-08-17T14:01:13.126Z,50.20
2023-08-17T14:06:17.050Z,50.43
2023-08-17T14:11:20.186Z,49.65
2023-08-17T14:16:23.593Z,49.33
2023-08-17T14:21:26.741Z,48.82
2023-08-17T14:26:45.302Z,48.14
2023-08-17T14:31:56.033Z,48.20
2023-08-17T14:36:59.513Z,47.40
2023-08-17T14:42:05.381Z,47.49
2023-08-17T14:47:09.374Z,47.03
2023-08-17T14:52:13.309Z,46.73
2023-08-17T14:57:16.405Z,47.38
2023-08-17T15:02:21.650Z,47.89
2023-08-17T15:07:25.467Z,48.36
2023-08-17T15:12:28.950Z,49.11
2023-08-17T15:17:32.072Z,49.55
2023-08-17T15:22:35.285Z,49.54
2023-08-17T15:27:40.385Z,49.69
2023-08-17T15:32:43.765Z,50.14
2023-08-17T15:37:46.985Z,50.47
2023-08-17T15:42:50.069Z,50.51
2023-08-17T15:47:53.123Z,51.01
2023-08-17T15:52:56.166Z,51.25
2023-08-17T15:57:59.644Z,51.24
2023-08-17T16:03:03.295Z,51.76
2023-08-17T16:08:06.913Z,51.73
2023-08-17T16:13:10.088Z,51.82
2023-08-17T16:18:14.935Z,51.83
2023-08-17T16:23:22.348Z,51.83
2023-08-17T16:28:27.139Z,52.06
2023-08-17T16:33:30.510Z,52.11
2023-08-17T16:38:33.833Z,52.16
2023-08-17T16:43:44.000Z,52.41
2023-08-17T16:48:47.080Z,52.68
2023-08-17T16:53:51.057Z,52.90
2023-08-17T16:58:54.820Z,53.07
2023-08-17T17:03:58.547Z,52.88
2023-08-17T17:09:01.760Z,53.06
2023-08-17T17:14:05.579Z,53.74
2023-08-17T17:19:09.064Z,54.04
2023-08-17T17:24:12.318Z,54.55
2023-08-17T17:29:15.579Z,54.46
2023-08-17T17:34:18.860Z,54.97
2023-08-17T17:39:22.049Z,55.56
2023-08-17T17:44:25.515Z,55.92
2023-08-17T17:49:28.591Z,55.75
2023-08-17T17:54:31.859Z,56.04
2023-08-17T17:59:35.158Z,56.13
2023-08-17T18:04:38.512Z,56.67
2023-08-17T18:09:47.604Z,56.89
2023-08-17T18:14:51.400Z,57.08
2023-08-17T18:19:54.710Z,57.53
2023-08-17T18:24:57.796Z,58.58
2023-08-17T18:30:01.192Z,58.83
2023-08-17T18:35:05.529Z,59.86
2023-08-17T18:40:10.978Z,59.60
2023-08-17T18:45:15.934Z,59.75
2023-08-17T18:50:19.416Z,60.39
2023-08-17T18:55:22.819Z,59.49
2023-08-17T19:00:26.226Z,58.87
2023-08-17T19:05:29.547Z,58.41
2023-08-17T19:11:02.850Z,58.80
2023-08-17T19:16:12.679Z,59.10
2023-08-17T19:21:15.769Z,59.49
2023-08-17T19:26:18.825Z,59.30
2023-08-17T19:31:22.076Z,59.28
2023-08-17T19:36:25.530Z,59.39
2023-08-17T19:41:29.524Z,59.60
2023-08-17T19:46:36.460Z,59.76
2023-08-17T19:51:49.392Z,60.12
2023-08-17T19:56:55.052Z,60.15
2023-08-17T20:01:59.920Z,60.28
2023-08-17T20:07:04.565Z,60.49
2023-08-17T20:12:08.397Z,60.63
2023-08-17T20:17:11.805Z,60.88
2023-08-17T20:22:15.449Z,60.80
2023-08-17T20:27:18.765Z,60.58
2023-08-17T20:32:21.959Z,60.48
2023-08-17T20:37:24.959Z,60.95
2023-08-17T20:42:28.141Z,61.00
2023-08-17T20:47:31.587Z,61.07
2023-08-17T20:52:34.968Z,61.43
2023-08-17T20:57:38.716Z,61.55
2023-08-17T21:02:41.884Z,61.83
2023-08-17T21:07:45.258Z,61.89
2023-08-17T21:12:48.737Z,61.80
2023-08-17T21:17:51.845Z,62.00
2023-08-17T21:22:55.097Z,62.52
2023-08-17T21:27:58.253Z,62.87
2023-08-17T21:33:01.422Z,63.04
2023-08-17T21:43:23.751Z,63.74
2023-08-17T21:48:28.469Z,64.16
2023-08-17T21:53:31.558Z,64.35
2023-08-17T21:58:34.712Z,64.65
2023-08-17T22:03:37.798Z,64.62
2023-08-17T22:08:41.059Z,64.47
2023-08-17T22:13:44.398Z,64.50
2023-08-17T22:18:47.490Z,64.42
2023-08-17T22:23:50.503Z,64.45
2023-08-17T22:28:53.501Z,64.25
2023-08-17T22:33:56.646Z,64.41
2023-08-17T22:39:09.927Z,64.96
2023-08-17T22:44:13.063Z,64.90
2023-08-17T22:49:16.397Z,65.05
2023-08-17T22:54:19.442Z,65.14
2023-08-17T22:59:23.156Z,65.23
2023-08-17T23:04:28.783Z,65.33
2023-08-17T23:09:33.167Z,65.35
2023-08-17T23:14:38.375Z,65.47
2023-08-17T23:19:58.173Z,65.49
2023-08-17T23:25:01.352Z,65.65
2023-08-17T23:30:05.359Z,65.86
2023-08-17T23:35:08.961Z,65.90
2023-08-17T23:40:12.729Z,66.32
2023-08-17T23:45:15.887Z,66.50
2023-08-17T23:50:19.166Z,66.77
2023-08-17T23:55:22.573Z,66.80
